Time;durP1;ratioP1;P1;durP2;ratioP2;P2;SDS_P1;SDS_P2;PMS_P1;PMS_P2;Temp;Humidity;BMP_temperature;BMP_pressure;BME280_temperature;BME280_humidity;BME280_pressure;Samples;Min_cycle;Max_cycle;Signal;HPM_P1;HPM_P2
2022/12/08 00:00:20;;;;;;;1999.90;999.90;;;5.10;99.90;;;;;;5032851;28;20179;-69
2022/12/08 00:02:46;;;;;;;1999.90;999.90;;;5.10;99.90;;;;;;5032777;28;20187;-69
2022/12/08 00:10:43;;;;;;;1999.90;999.90;;;5.00;99.90;;;;;;5032347;28;20426;-69
2022/12/08 00:13:09;;;;;;;1999.90;999.90;;;4.90;99.90;;;;;;5032357;28;20216;-69
2022/12/08 00:15:34;;;;;;;1999.90;999.90;;;4.90;99.90;;;;;;5032478;28;20168;-68
2022/12/08 00:18:00;;;;;;;1999.90;999.90;;;5.00;99.90;;;;;;5032171;28;20227;-68
2022/12/08 00:20:26;;;;;;;1999.90;999.90;;;4.90;99.90;;;;;;5032401;28;20240;-68
2022/12/08 00:22:51;;;;;;;1999.90;999.90;;;5.00;99.90;;;;;;5032177;28;20543;-68
2022/12/08 00:25:17;;;;;;;1999.90;999.90;;;5.00;99.90;;;;;;5032280;28;20638;-68
2022/12/08 00:27:43;;;;;;;1999.90;999.90;;;4.90;99.90;;;;;;5031947;28;20640;-68
2022/12/08 00:30:09;;;;;;;1999.90;999.90;;;4.90;99.90;;;;;;5032216;28;20168;-68
2022/12/08 00:32:36;;;;;;;1999.90;999.90;;;4.90;99.90;;;;;;5032070;28;20211;-69
2022/12/08 00:35:02;;;;;;;1999.90;999.90;;;4.90;99.90;;;;;;5032109;28;20423;-69
2022/12/08 00:37:27;;;;;;;1999.90;999.90;;;4.90;99.90;;;;;;5031838;28;20401;-69
2022/12/08 00:39:53;;;;;;;1999.90;999.90;;;4.90;99.90;;;;;;5032039;28;20660;-69
2022/12/08 00:42:18;;;;;;;1999.90;999.90;;;4.90;99.90;;;;;;5031957;28;20176;-69
2022/12/08 00:44:45;;;;;;;1999.90;999.90;;;4.90;99.90;;;;;;5031987;28;20275;-69
2022/12/08 00:47:11;;;;;;;1999.90;999.90;;;4.90;99.90;;;;;;5031850;28;20186;-69
2022/12/08 00:49:37;;;;;;;1999.90;999.90;;;4.90;99.90;;;;;;5031935;28;20403;-69
2022/12/08 00:52:03;;;;;;;1999.90;999.90;;;4.90;99.90;;;;;;5031808;28;20584;-69
2022/12/08 00:54:28;;;;;;;1999.90;999.90;;;5.00;99.90;;;;;;5031744;28;20670;-68
2022/12/08 00:56:54;;;;;;;1999.90;999.90;;;5.00;99.90;;;;;;5037322;28;20225;-68
2022/12/08 00:59:20;;;;;;;1999.90;999.90;;;4.90;99.90;;;;;;5038686;28;20164;-69
2022/12/08 01:01:46;;;;;;;1999.90;999.90;;;5.00;99.90;;;;;;5038569;28;20180;-69
2022/12/08 01:04:14;;;;;;;1999.90;999.90;;;4.90;99.90;;;;;;5038390;28;20187;-68
2022/12/08 01:06:41;;;;;;;1999.90;999.90;;;4.90;99.90;;;;;;5038149;28;20406;-68
2022/12/08 01:09:08;;;;;;;1999.90;999.90;;;4.90;99.90;;;;;;5038330;28;20457;-68
2022/12/08 01:11:34;;;;;;;1999.90;999.90;;;4.90;99.90;;;;;;5038306;28;20450;-68
2022/12/08 01:14:00;;;;;;;1999.90;999.90;;;4.90;99.90;;;;;;5038274;28;20457;-68
2022/12/08 01:16:28;;;;;;;1999.90;999.90;;;4.90;99.90;;;;;;5038221;28;20176;-68
2022/12/08 01:18:55;;;;;;;1999.90;999.90;;;4.90;99.90;;;;;;5038145;28;20534;-68
2022/12/08 01:21:20;;;;;;;1999.90;999.90;;;5.00;99.90;;;;;;5038263;28;20453;-68
2022/12/08 01:23:46;;;;;;;1999.90;999.90;;;5.00;99.90;;;;;;5038196;28;20908;-68
2022/12/08 01:26:13;;;;;;;1999.90;999.90;;;5.00;99.90;;;;;;5038208;28;20175;-68
2022/12/08 01:28:40;;;;;;;1999.90;999.90;;;5.00;99.90;;;;;;5038035;28;20195;-69
2022/12/08 01:31:11;;;;;;;1999.90;999.90;;;5.00;99.90;;;;;;5038090;28;20419;-69
2022/12/08 01:33:36;;;;;;;1999.90;999.90;;;5.00;99.90;;;;;;5038174;28;21059;-69
2022/12/08 01:36:04;;;;;;;1999.90;999.90;;;5.00;99.90;;;;;;5038106;28;20406;-69
2022/12/08 01:38:30;;;;;;;1999.90;999.90;;;5.00;99.90;;;;;;5038094;28;20545;-69
2022/12/08 01:40:55;;;;;;;1999.90;999.90;;;5.00;99.90;;;;;;5038102;28;20168;-69
2022/12/08 01:43:21;;;;;;;1999.90;999.90;;;5.00;99.90;;;;;;5038036;28;20986;-69
2022/12/08 01:45:47;;;;;;;1999.90;999.90;;;5.00;99.90;;;;;;5038036;28;20169;-69
2022/12/08 01:48:18;;;;;;;1999.90;999.90;;;5.00;99.90;;;;;;5037747;28;20171;-69
2022/12/08 01:50:45;;;;;;;1999.90;999.90;;;4.90;99.90;;;;;;5038244;28;20403;-69
2022/12/08 01:53:26;;;;;;;1999.90;999.90;;;4.90;99.90;;;;;;5037766;28;20469;-69
2022/12/08 01:55:56;;;;;;;1999.90;999.90;;;4.90;99.90;;;;;;5037909;28;20847;-69
2022/12/08 01:58:31;;;;;;;1999.90;999.90;;;4.90;99.90;;;;;;5037769;28;20399;-68
2022/12/08 02:00:56;;;;;;;1999.90;999.90;;;4.90;99.90;;;;;;5037947;28;20409;-68
2022/12/08 02:03:34;;;;;;;1999.90;999.90;;;4.90;99.90;;;;;;5038007;28;20431;-68
2022/12/08 02:06:00;;;;;;;1999.90;999.90;;;4.90;99.90;;;;;;5037872;28;20529;-68
2022/12/08 02:08:27;;;;;;;1999.90;999.90;;;4.90;99.90;;;;;;5033998;28;20403;-68
2022/12/08 02:10:53;;;;;;;1999.90;999.90;;;4.90;99.90;;;;;;5034653;28;20757;-68
2022/12/08 02:13:22;;;;;;;1999.90;999.90;;;4.90;99.90;;;;;;5034516;28;20422;-68
2022/12/08 02:16:03;;;;;;;1999.90;999.90;;;4.90;99.90;;;;;;5034625;28;20225;-68
2022/12/08 02:18:52;;;;;;;1999.90;999.90;;;4.90;99.90;;;;;;5034487;28;20403;-68
2022/12/08 02:21:22;;;;;;;1999.90;999.90;;;4.90;99.90;;;;;;5034516;28;20968;-68
2022/12/08 02:23:50;;;;;;;1999.90;999.90;;;4.90;99.90;;;;;;5034477;28;20824;-68
2022/12/08 02:26:53;;;;;;;1999.90;999.90;;;5.00;99.90;;;;;;5034285;28;20418;-68
2022/12/08 02:30:00;;;;;;;1999.90;999.90;;;4.90;99.90;;;;;;4973236;28;20908;-68
2022/12/08 02:33:14;;;;;;;1999.90;999.90;;;4.90;99.90;;;;;;5034294;28;20545;-68
2022/12/08 02:36:02;;;;;;;1999.90;999.90;;;4.80;99.90;;;;;;5034834;28;20465;-69
2022/12/08 02:38:54;;;;;;;1999.90;999.90;;;4.80;99.90;;;;;;5034036;28;20811;-69
2022/12/08 02:41:26;;;;;;;1999.90;999.90;;;4.80;99.90;;;;;;5034210;28;20408;-69
2022/12/08 02:44:26;;;;;;;1999.90;999.90;;;4.80;99.90;;;;;;5034270;28;20769;-69
2022/12/08 02:46:59;;;;;;;1999.90;999.90;;;4.90;99.90;;;;;;5033943;28;20445;-69
2022/12/08 02:49:30;;;;;;;1999.90;999.90;;;4.80;99.90;;;;;;5034009;28;20529;-69
2022/12/08 02:52:11;;;;;;;1999.90;999.90;;;4.90;99.90;;;;;;5034004;28;20477;-69
2022/12/08 02:54:44;;;;;;;1999.90;999.90;;;4.80;99.90;;;;;;5033789;28;20334;-68
2022/12/08 02:57:41;;;;;;;1999.90;999.90;;;4.90;99.90;;;;;;5033736;28;20395;-69
2022/12/08 03:00:22;;;;;;;1999.90;999.90;;;4.80;99.90;;;;;;5034022;28;20461;-69
2022/12/08 03:03:02;;;;;;;1999.90;999.90;;;4.80;99.90;;;;;;5034004;28;20453;-68
2022/12/08 03:05:56;;;;;;;1999.90;999.90;;;4.80;99.90;;;;;;5033696;28;20402;-69
2022/12/08 03:08:27;;;;;;;1999.90;999.90;;;4.80;99.90;;;;;;5033625;28;20418;-69
2022/12/08 03:11:02;;;;;;;1999.90;999.90;;;4.80;99.90;;;;;;5033660;28;20403;-69
2022/12/08 03:13:56;;;;;;;1999.90;999.90;;;4.80;99.90;;;;;;5033688;28;20484;-68
2022/12/08 03:16:26;;;;;;;1999.90;999.90;;;4.80;99.90;;;;;;5031985;28;20434;-69
2022/12/08 03:19:21;;;;;;;1999.90;999.90;;;4.80;99.90;;;;;;5033299;28;20404;-69
2022/12/08 03:21:51;;;;;;;1999.90;999.90;;;4.80;99.90;;;;;;5032922;28;20419;-69
2022/12/08 03:24:20;;;;;;;1999.90;999.90;;;4.80;99.90;;;;;;5033413;28;20493;-69
2022/12/08 03:26:53;;;;;;;1999.90;999.90;;;4.80;99.90;;;;;;5033188;28;20407;-69
2022/12/08 03:29:19;;;;;;;1999.90;999.90;;;4.80;99.90;;;;;;5033465;28;20395;-68
2022/12/08 03:31:54;;;;;;;1999.90;999.90;;;4.80;99.90;;;;;;5032165;28;20819;-69
2022/12/08 03:34:22;;;;;;;1999.90;999.90;;;4.80;99.90;;;;;;5033184;28;20472;-69
2022/12/08 03:36:48;;;;;;;1999.90;999.90;;;4.80;99.90;;;;;;5033370;28;20177;-68
2022/12/08 03:39:13;;;;;;;1999.90;999.90;;;4.80;99.90;;;;;;5033211;28;20484;-69
2022/12/08 03:41:39;;;;;;;1999.90;999.90;;;4.80;99.90;;;;;;5033146;28;20207;-69
2022/12/08 03:44:05;;;;;;;1999.90;999.90;;;4.80;99.90;;;;;;5033165;28;20196;-69
2022/12/08 03:46:31;;;;;;;1999.90;999.90;;;4.80;99.90;;;;;;5032939;28;20279;-68
2022/12/08 03:48:56;;;;;;;1999.90;999.90;;;4.80;99.90;;;;;;5032989;28;20259;-68
2022/12/08 03:51:22;;;;;;;1999.90;999.90;;;4.80;99.90;;;;;;5033196;28;20470;-68
2022/12/08 03:53:48;;;;;;;1999.90;999.90;;;4.80;99.90;;;;;;5033041;28;20204;-69
2022/12/08 03:56:25;;;;;;;1999.90;999.90;;;4.70;99.90;;;;;;5033567;28;20461;-68
2022/12/08 03:58:51;;;;;;;1999.90;999.90;;;4.70;99.90;;;;;;5033187;28;20421;-69
2022/12/08 04:01:17;;;;;;;1999.90;999.90;;;4.70;99.90;;;;;;5033098;28;20413;-69
2022/12/08 04:03:42;;;;;;;1999.90;999.90;;;4.60;99.90;;;;;;5032969;28;20792;-68
2022/12/08 04:06:08;;;;;;;1999.90;999.90;;;4.60;99.90;;;;;;5033393;28;20511;-68
2022/12/08 04:08:34;;;;;;;1999.90;999.90;;;4.60;99.90;;;;;;5033015;28;20187;-69
2022/12/08 04:10:59;;;;;;;1999.90;999.90;;;4.60;99.90;;;;;;5032904;28;20230;-68
2022/12/08 04:13:25;;;;;;;1999.90;999.90;;;4.60;99.90;;;;;;5033016;28;20192;-68
2022/12/08 04:15:50;;;;;;;1999.90;999.90;;;4.60;99.90;;;;;;5032620;28;20172;-69
2022/12/08 04:18:16;;;;;;;1999.90;999.90;;;4.60;99.90;;;;;;5032752;28;20176;-68
2022/12/08 04:20:43;;;;;;;1999.90;999.90;;;4.60;99.90;;;;;;5033579;28;20172;-69
2022/12/08 04:23:10;;;;;;;1999.90;999.90;;;4.60;99.90;;;;;;5032923;28;20196;-68
2022/12/08 04:25:36;;;;;;;1999.90;999.90;;;4.60;99.90;;;;;;5032843;28;20472;-68
2022/12/08 04:28:03;;;;;;;1999.90;999.90;;;4.60;99.90;;;;;;5032365;28;20407;-69
2022/12/08 04:30:29;;;;;;;1999.90;999.90;;;4.60;99.90;;;;;;5031855;28;20983;-68
2022/12/08 04:32:54;;;;;;;1999.90;999.90;;;4.70;99.90;;;;;;5032283;28;20581;-68
2022/12/08 04:35:20;;;;;;;1999.90;999.90;;;4.70;99.90;;;;;;5032226;28;20414;-69
2022/12/08 04:37:46;;;;;;;1999.90;999.90;;;4.70;99.90;;;;;;5032006;28;20172;-68
2022/12/08 04:40:12;;;;;;;1999.90;999.90;;;4.70;99.90;;;;;;5032190;28;20413;-69
2022/12/08 04:42:38;;;;;;;1999.90;999.90;;;4.70;99.90;;;;;;5032006;28;20251;-69
2022/12/08 04:45:04;;;;;;;1999.90;999.90;;;4.70;99.90;;;;;;5031972;28;21086;-68
2022/12/08 04:47:30;;;;;;;1999.90;999.90;;;4.70;99.90;;;;;;5031836;28;20176;-68
2022/12/08 04:49:55;;;;;;;1999.90;999.90;;;4.80;99.90;;;;;;5032037;28;20924;-68
2022/12/08 04:52:21;;;;;;;1999.90;999.90;;;4.80;99.90;;;;;;5032143;28;20227;-69
2022/12/08 04:54:47;;;;;;;1999.90;999.90;;;4.80;99.90;;;;;;5032007;28;20247;-68
2022/12/08 04:57:13;;;;;;;1999.90;999.90;;;4.70;99.90;;;;;;5031893;28;20227;-68
2022/12/08 04:59:38;;;;;;;1999.90;999.90;;;4.80;99.90;;;;;;5031846;28;20649;-68
2022/12/08 05:02:04;;;;;;;1999.90;999.90;;;4.80;99.90;;;;;;5031896;28;20399;-69
2022/12/08 05:04:30;;;;;;;1999.90;999.90;;;4.70;99.90;;;;;;5032094;28;20196;-68
2022/12/08 05:06:56;;;;;;;1999.90;999.90;;;4.80;99.90;;;;;;5031950;28;20199;-68
2022/12/08 05:09:21;;;;;;;1999.90;999.90;;;4.80;99.90;;;;;;5031827;28;20423;-69
2022/12/08 05:11:47;;;;;;;1999.90;999.90;;;4.80;99.90;;;;;;5031993;28;20457;-68
2022/12/08 05:14:14;;;;;;;1999.90;999.90;;;4.70;99.90;;;;;;5032085;28;20674;-68
2022/12/08 05:16:40;;;;;;;1999.90;999.90;;;4.70;99.90;;;;;;5032290;28;20557;-67
2022/12/08 05:19:06;;;;;;;1999.90;999.90;;;4.70;99.90;;;;;;5032611;28;20422;-68
2022/12/08 05:21:32;;;;;;;1999.90;999.90;;;4.70;99.90;;;;;;5032997;28;20411;-69
2022/12/08 05:23:58;;;;;;;1999.90;999.90;;;4.80;99.90;;;;;;5033345;28;20196;-68
2022/12/08 05:26:23;;;;;;;1999.90;999.90;;;4.70;99.90;;;;;;5032736;28;20183;-68
2022/12/08 05:28:49;;;;;;;1999.90;999.90;;;4.70;99.90;;;;;;5032096;28;20176;-69
2022/12/08 05:31:16;;;;;;;1999.90;999.90;;;4.70;99.90;;;;;;5032154;28;20207;-68
2022/12/08 05:33:42;;;;;;;1999.90;999.90;;;4.70;99.90;;;;;;5032364;28;20263;-68
2022/12/08 05:36:11;;;;;;;1999.90;999.90;;;4.70;99.90;;;;;;5032343;28;20399;-68
2022/12/08 05:38:37;;;;;;;1999.90;999.90;;;4.70;99.90;;;;;;5031951;28;20481;-67
2022/12/08 05:41:03;;;;;;;1999.90;999.90;;;4.70;99.90;;;;;;5032707;28;20906;-69
2022/12/08 05:43:28;;;;;;;1999.90;999.90;;;4.70;99.90;;;;;;5035179;28;20219;-69
2022/12/08 05:45:54;;;;;;;1999.90;999.90;;;4.70;99.90;;;;;;5036435;28;20407;-69
2022/12/08 05:48:19;;;;;;;1999.90;999.90;;;4.70;99.90;;;;;;5036265;28;20175;-68
2022/12/08 05:50:46;;;;;;;1999.90;999.90;;;4.60;99.90;;;;;;5036587;28;20242;-69
2022/12/08 05:53:12;;;;;;;1999.90;999.90;;;4.60;99.90;;;;;;5036323;28;20591;-69
2022/12/08 05:55:38;;;;;;;1999.90;999.90;;;4.70;99.90;;;;;;5036480;28;20395;-68
2022/12/08 05:58:05;;;;;;;1999.90;999.90;;;4.70;99.90;;;;;;5035691;28;20710;-69
2022/12/08 06:00:33;;;;;;;1999.90;999.90;;;4.70;99.90;;;;;;5035558;28;20168;-69
2022/12/08 06:02:59;;;;;;;1999.90;999.90;;;4.70;99.90;;;;;;5035244;28;20403;-68
2022/12/08 06:05:25;;;;;;;1999.90;999.90;;;4.70;99.90;;;;;;5034902;28;20437;-68
2022/12/08 06:07:51;;;;;;;1999.90;999.90;;;4.70;99.90;;;;;;5034582;28;20446;-68
2022/12/08 06:10:16;;;;;;;1999.90;999.90;;;4.70;99.90;;;;;;5034742;28;20776;-68
2022/12/08 06:12:42;;;;;;;1999.90;999.90;;;4.70;99.90;;;;;;5034708;28;20563;-68
2022/12/08 06:15:08;;;;;;;1999.90;999.90;;;4.60;99.90;;;;;;5034575;28;20188;-68
2022/12/08 06:17:34;;;;;;;1999.90;999.90;;;4.60;99.90;;;;;;5034591;28;20180;-68
2022/12/08 06:20:00;;;;;;;1999.90;999.90;;;4.60;99.90;;;;;;5034607;28;20439;-68
2022/12/08 06:22:25;;;;;;;1999.90;999.90;;;4.70;99.90;;;;;;5034541;28;20410;-68
2022/12/08 06:24:51;;;;;;;1999.90;999.90;;;4.60;99.90;;;;;;5034442;28;20196;-68
2022/12/08 06:27:17;;;;;;;1999.90;999.90;;;4.60;99.90;;;;;;5034306;28;20177;-68
2022/12/08 06:29:42;;;;;;;1999.90;999.90;;;4.60;99.90;;;;;;5034343;28;20169;-68
2022/12/08 06:32:08;;;;;;;1999.90;999.90;;;4.60;99.90;;;;;;5034307;28;20257;-69
2022/12/08 06:34:33;;;;;;;1999.90;999.90;;;4.60;99.90;;;;;;5034213;28;20181;-69
2022/12/08 06:36:59;;;;;;;1999.90;999.90;;;4.60;99.90;;;;;;5034055;28;20586;-68
2022/12/08 06:39:24;;;;;;;1999.90;999.90;;;4.60;99.90;;;;;;5034178;28;20172;-69
2022/12/08 06:44:34;;;;;;;1999.90;999.90;;;4.60;99.90;;;;;;5034409;28;20211;-68
2022/12/08 06:47:00;;;;;;;1999.90;999.90;;;4.50;99.90;;;;;;5033915;28;20411;-69
2022/12/08 06:49:25;;;;;;;1999.90;999.90;;;4.40;99.90;;;;;;5034033;28;20229;-68
2022/12/08 06:51:51;;;;;;;1999.90;999.90;;;4.50;99.90;;;;;;5033903;28;20192;-68
2022/12/08 06:54:16;;;;;;;1999.90;999.90;;;4.40;99.90;;;;;;5033219;28;20251;-68
2022/12/08 06:56:42;;;;;;;1999.90;999.90;;;4.40;99.90;;;;;;5033657;28;20179;-68
2022/12/08 06:59:07;;;;;;;1999.90;999.90;;;4.40;99.90;;;;;;5033992;28;20263;-68
2022/12/08 07:01:33;;;;;;;1999.90;999.90;;;4.50;99.90;;;;;;5033980;28;20172;-68
2022/12/08 07:03:59;;;;;;;1999.90;999.90;;;4.40;99.90;;;;;;5033691;28;20200;-68
2022/12/08 07:06:24;;;;;;;1999.90;999.90;;;4.40;99.90;;;;;;5033724;28;20645;-68
2022/12/08 07:08:50;;;;;;;1999.90;999.90;;;4.40;99.90;;;;;;5033479;28;20176;-68
2022/12/08 07:11:16;;;;;;;1999.90;999.90;;;4.30;99.90;;;;;;5033655;28;20697;-68
2022/12/08 07:13:42;;;;;;;1999.90;999.90;;;4.30;99.90;;;;;;5033518;28;20184;-68
2022/12/08 07:16:08;;;;;;;1999.90;999.90;;;4.30;99.90;;;;;;5033412;28;20960;-68
2022/12/08 07:18:34;;;;;;;1999.90;999.90;;;4.30;99.90;;;;;;5033327;28;20200;-68
2022/12/08 07:21:09;;;;;;;1999.90;999.90;;;4.30;99.90;;;;;;5033436;28;20411;-68
2022/12/08 07:23:36;;;;;;;1999.90;999.90;;;4.30;99.90;;;;;;5033280;28;20458;-68
2022/12/08 07:26:04;;;;;;;1999.90;999.90;;;4.30;99.90;;;;;;5033471;28;20188;-68
2022/12/08 07:28:34;;;;;;;1999.90;999.90;;;4.20;99.90;;;;;;5033172;28;20490;-68
2022/12/08 07:31:00;;;;;;;1999.90;999.90;;;4.20;99.90;;;;;;5033311;28;20222;-68
2022/12/08 07:33:26;;;;;;;1999.90;999.90;;;4.20;99.90;;;;;;5033047;28;20196;-68
2022/12/08 07:35:57;;;;;;;1999.90;999.90;;;4.10;99.90;;;;;;5033029;28;20769;-68
2022/12/08 07:38:23;;;;;;;1999.90;999.90;;;4.10;99.90;;;;;;5032956;28;20411;-68
2022/12/08 07:40:49;;;;;;;1999.90;999.90;;;4.10;99.90;;;;;;5033039;28;20908;-68
2022/12/08 07:43:14;;;;;;;1999.90;999.90;;;4.00;99.90;;;;;;5033024;28;20435;-68
2022/12/08 07:45:40;;;;;;;1999.90;999.90;;;4.00;99.90;;;;;;5032977;28;20403;-69
2022/12/08 07:48:06;;;;;;;1999.90;999.90;;;4.00;99.90;;;;;;5032610;28;20180;-69
2022/12/08 07:50:32;;;;;;;1999.90;999.90;;;3.90;99.90;;;;;;5032876;28;20748;-68
2022/12/08 07:52:57;;;;;;;1999.90;999.90;;;3.90;99.90;;;;;;5032562;28;20206;-69
2022/12/08 07:55:24;;;;;;;1999.90;999.90;;;3.90;99.90;;;;;;5032901;28;20939;-68
2022/12/08 07:57:50;;;;;;;1999.90;999.90;;;3.90;99.90;;;;;;5032538;28;20211;-68
2022/12/08 08:00:16;;;;;;;1999.90;999.90;;;3.90;99.90;;;;;;5032702;28;20487;-68
2022/12/08 08:02:42;;;;;;;1999.90;999.90;;;3.90;99.90;;;;;;5032655;28;20403;-68
2022/12/08 08:05:08;;;;;;;1999.90;999.90;;;4.00;99.90;;;;;;5031765;28;20974;-68
2022/12/08 08:07:35;;;;;;;1999.90;999.90;;;4.00;99.90;;;;;;5032414;28;20590;-68
2022/12/08 08:10:01;;;;;;;1999.90;999.90;;;3.90;99.90;;;;;;5032644;28;20783;-68
2022/12/08 08:12:26;;;;;;;1999.90;999.90;;;3.90;99.90;;;;;;5032424;28;20538;-68
2022/12/08 08:14:52;;;;;;;1999.90;999.90;;;3.90;99.90;;;;;;5032449;28;20184;-68
2022/12/08 08:17:17;;;;;;;1999.90;999.90;;;3.90;99.90;;;;;;5032176;28;20728;-68
2022/12/08 08:19:44;;;;;;;1999.90;999.90;;;3.80;99.90;;;;;;5032240;28;20205;-68
2022/12/08 08:22:10;;;;;;;1999.90;999.90;;;3.90;99.90;;;;;;5032288;28;20164;-68
2022/12/08 08:24:35;;;;;;;1999.90;999.90;;;4.00;99.90;;;;;;5032227;28;20848;-68
2022/12/08 08:27:01;;;;;;;1999.90;999.90;;;4.00;99.90;;;;;;5032091;28;20183;-68
2022/12/08 08:29:27;;;;;;;1999.90;999.90;;;4.10;99.90;;;;;;5032127;28;20173;-68
2022/12/08 08:31:52;;;;;;;1999.90;999.90;;;4.10;99.90;;;;;;5032041;28;20196;-68
2022/12/08 08:34:18;;;;;;;1999.90;999.90;;;4.10;99.90;;;;;;5032536;28;20267;-68
2022/12/08 08:36:43;;;;;;;1999.90;999.90;;;4.10;99.90;;;;;;5031914;28;20259;-68
2022/12/08 08:39:09;;;;;;;1999.90;999.90;;;4.10;99.90;;;;;;5032190;28;20176;-68
2022/12/08 08:41:35;;;;;;;1999.90;999.90;;;4.10;99.90;;;;;;5032118;28;20539;-68
2022/12/08 08:44:00;;;;;;;1999.90;999.90;;;4.10;99.90;;;;;;5031960;28;20250;-68
2022/12/08 08:46:26;;;;;;;1999.90;999.90;;;4.10;99.90;;;;;;5031903;28;20409;-68
2022/12/08 08:48:52;;;;;;;1999.90;999.90;;;4.10;99.90;;;;;;5031790;28;20251;-68
2022/12/08 08:51:17;;;;;;;1999.90;999.90;;;4.10;99.90;;;;;;5031840;28;20274;-68
2022/12/08 08:53:43;;;;;;;1999.90;999.90;;;4.10;99.90;;;;;;5031902;28;20211;-68
2022/12/08 08:56:10;;;;;;;1999.90;999.90;;;4.10;99.90;;;;;;5031830;28;20194;-68
2022/12/08 08:58:36;;;;;;;1999.90;999.90;;;4.10;99.90;;;;;;5031715;28;20215;-68
2022/12/08 09:01:02;;;;;;;1999.90;999.90;;;4.00;99.90;;;;;;5031833;28;20172;-68
2022/12/08 09:03:27;;;;;;;1999.90;999.90;;;4.00;99.90;;;;;;5031781;28;20216;-68
2022/12/08 09:05:55;;;;;;;1999.90;999.90;;;4.00;99.90;;;;;;5028902;28;20239;-68
2022/12/08 09:08:20;;;;;;;1999.90;999.90;;;4.00;99.90;;;;;;5011508;28;20188;-68
2022/12/08 09:10:46;;;;;;;1999.90;999.90;;;4.00;99.90;;;;;;5012277;28;20259;-68
2022/12/08 09:13:12;;;;;;;1999.90;999.90;;;4.00;99.90;;;;;;5012007;28;20456;-68
2022/12/08 09:15:38;;;;;;;1999.90;999.90;;;4.00;99.90;;;;;;5026524;28;20235;-68
2022/12/08 09:18:05;;;;;;;1999.90;999.90;;;4.00;99.90;;;;;;5034898;28;20204;-68
2022/12/08 09:20:32;;;;;;;1999.90;999.90;;;4.00;99.90;;;;;;5035630;28;20214;-68
2022/12/08 09:22:57;;;;;;;1999.90;999.90;;;3.90;99.90;;;;;;5035605;28;20211;-68
2022/12/08 09:25:23;;;;;;;1999.90;999.90;;;3.90;99.90;;;;;;5032888;28;20223;-69
2022/12/08 09:27:48;;;;;;;1999.90;999.90;;;3.80;99.90;;;;;;5034452;28;20172;-68
2022/12/08 09:30:14;;;;;;;1999.90;999.90;;;3.90;99.90;;;;;;5035230;28;20179;-68
2022/12/08 09:32:40;;;;;;;1999.90;999.90;;;3.90;99.90;;;;;;5034802;28;20188;-68
2022/12/08 09:35:06;;;;;;;1999.90;999.90;;;3.90;99.90;;;;;;5034893;28;20191;-69
2022/12/08 09:37:31;;;;;;;1999.90;999.90;;;3.90;99.90;;;;;;5034249;28;20538;-68
2022/12/08 09:39:57;;;;;;;1999.90;999.90;;;3.90;99.90;;;;;;5033923;28;20538;-68
2022/12/08 09:42:40;;;;;;;1999.90;999.90;;;3.90;99.90;;;;;;5034835;28;20194;-68
2022/12/08 09:45:15;;;;;;;1999.90;999.90;;;4.00;99.90;;;;;;5034647;28;20209;-68
2022/12/08 09:47:58;;;;;;;1999.90;999.90;;;4.00;99.90;;;;;;5034259;28;20207;-68
2022/12/08 09:50:47;;;;;;;1999.90;999.90;;;4.00;99.90;;;;;;5035001;28;20314;-68
2022/12/08 09:53:28;;;;;;;1999.90;999.90;;;4.10;99.90;;;;;;5034113;28;20605;-68
2022/12/08 09:56:01;;;;;;;1999.90;999.90;;;4.10;99.90;;;;;;5034538;28;20407;-68
2022/12/08 09:58:36;;;;;;;1999.90;999.90;;;4.10;99.90;;;;;;5034296;28;20169;-68
2022/12/08 10:01:02;;;;;;;1999.90;999.90;;;4.20;99.90;;;;;;5017728;28;20442;-68
2022/12/08 10:03:29;;;;;;;1999.90;999.90;;;4.30;99.90;;;;;;5001251;28;20530;-68
2022/12/08 10:06:10;;;;;;;1999.90;999.90;;;4.40;99.90;;;;;;5014236;28;20234;-68
2022/12/08 10:08:46;;;;;;;1999.90;999.90;;;4.40;99.90;;;;;;5013896;28;20415;-69
2022/12/08 10:11:31;;;;;;;1999.90;999.90;;;4.50;99.90;;;;;;5014703;28;20491;-68
2022/12/08 10:14:22;;;;;;;1999.90;999.90;;;4.50;99.90;;;;;;5012907;28;20431;-69
2022/12/08 10:16:52;;;;;;;1999.90;999.90;;;4.50;99.90;;;;;;4997452;28;20419;-67
2022/12/08 10:19:21;;;;;;;1999.90;999.90;;;4.50;99.90;;;;;;5013838;28;20479;-67
2022/12/08 10:21:48;;;;;;;1999.90;999.90;;;4.50;99.90;;;;;;5006441;28;20424;-67
2022/12/08 10:24:49;;;;;;;1999.90;999.90;;;4.50;99.90;;;;;;4993985;28;20429;-67
2022/12/08 10:27:15;;;;;;;1999.90;999.90;;;4.50;99.90;;;;;;4988976;28;20469;-67
2022/12/08 10:29:40;;;;;;;1999.90;999.90;;;4.50;99.90;;;;;;4993480;28;20440;-67
2022/12/08 10:32:17;;;;;;;1999.90;999.90;;;4.50;99.90;;;;;;4994325;28;20196;-67
2022/12/08 10:35:08;;;;;;;1999.90;999.90;;;4.40;99.90;;;;;;4994576;28;20591;-67
2022/12/08 10:37:35;;;;;;;1999.90;999.90;;;4.40;99.90;;;;;;4993779;28;20416;-67
2022/12/08 10:40:10;;;;;;;1999.90;999.90;;;4.20;99.90;;;;;;4994351;28;20427;-67
2022/12/08 10:42:49;;;;;;;1999.90;999.90;;;4.10;99.90;;;;;;4994362;28;20180;-68
2022/12/08 10:45:27;;;;;;;1999.90;999.90;;;3.90;99.90;;;;;;4993642;28;20500;-67
2022/12/08 10:48:16;;;;;;;1999.90;999.90;;;3.90;99.90;;;;;;4993865;28;20447;-68
2022/12/08 10:50:45;;;;;;;1999.90;999.90;;;3.90;99.90;;;;;;4994427;28;20184;-68
2022/12/08 10:53:12;;;;;;;1999.90;999.90;;;3.90;99.90;;;;;;4993372;28;20213;-68
2022/12/08 10:55:41;;;;;;;1999.90;999.90;;;3.90;99.90;;;;;;4994378;28;20300;-68
2022/12/08 10:58:49;;;;;;;1999.90;999.90;;;3.90;99.90;;;;;;4993826;28;20173;-68
2022/12/08 11:01:17;;;;;;;1999.90;999.90;;;3.90;99.90;;;;;;4991919;28;20181;-68
2022/12/08 11:04:02;;;;;;;1999.90;999.90;;;3.90;99.90;;;;;;4993990;28;20561;-68
2022/12/08 11:06:33;;;;;;;1999.90;999.90;;;3.90;99.90;;;;;;4994006;28;20860;-68
2022/12/08 11:09:03;;;;;;;1999.90;999.90;;;3.90;99.90;;;;;;4993519;28;20532;-68
2022/12/08 11:11:43;;;;;;;1999.90;999.90;;;3.90;99.90;;;;;;4992916;28;20170;-68
2022/12/08 11:14:23;;;;;;;1999.90;999.90;;;4.00;99.90;;;;;;4993735;28;20185;-68
2022/12/08 11:16:52;;;;;;;1999.90;999.90;;;4.10;99.90;;;;;;4992983;28;20415;-67
2022/12/08 11:19:19;;;;;;;1999.90;999.90;;;4.20;99.90;;;;;;4993961;28;20441;-67
2022/12/08 11:21:45;;;;;;;1999.90;999.90;;;4.30;99.90;;;;;;4993685;28;20178;-67
2022/12/08 11:24:21;;;;;;;1999.90;999.90;;;4.40;99.90;;;;;;4993193;28;20793;-67
2022/12/08 11:27:03;;;;;;;1999.90;999.90;;;4.50;99.90;;;;;;4993450;28;20474;-67
2022/12/08 11:29:31;;;;;;;1999.90;999.90;;;4.70;99.90;;;;;;4992108;28;20906;-67
2022/12/08 11:32:02;;;;;;;1999.90;999.90;;;4.80;99.90;;;;;;4992959;28;20510;-67
2022/12/08 11:34:42;;;;;;;1999.90;999.90;;;5.00;99.90;;;;;;4993433;28;20930;-67
2022/12/08 11:37:21;;;;;;;1999.90;999.90;;;5.10;99.90;;;;;;4992901;28;21024;-67
2022/12/08 11:39:51;;;;;;;1999.90;999.90;;;5.20;99.90;;;;;;4993217;28;20927;-67
2022/12/08 11:42:20;;;;;;;1999.90;999.90;;;5.40;99.90;;;;;;4993365;28;20405;-67
2022/12/08 11:44:56;;;;;;;1999.90;999.90;;;5.40;99.90;;;;;;4992671;28;20432;-67
2022/12/08 11:47:26;;;;;;;1999.90;999.90;;;5.50;99.90;;;;;;4991542;28;20531;-67
2022/12/08 11:50:00;;;;;;;1999.90;999.90;;;5.50;99.90;;;;;;4993064;28;20845;-67
2022/12/08 11:52:40;;;;;;;1999.90;999.90;;;5.50;99.90;;;;;;4992426;28;20445;-67
2022/12/08 11:55:25;;;;;;;1999.90;999.90;;;5.50;99.90;;;;;;4993280;28;20594;-67
2022/12/08 11:57:50;;;;;;;1999.90;999.90;;;5.50;99.90;;;;;;4992708;28;20432;-67
2022/12/08 12:00:17;;;;;;;1999.90;999.90;;;5.50;99.90;;;;;;4992083;28;20432;-67
2022/12/08 12:02:53;;;;;;;1999.90;999.90;;;5.40;99.90;;;;;;4992068;28;20618;-67
2022/12/08 12:05:41;;;;;;;1999.90;999.90;;;5.40;99.90;;;;;;4993068;28;20403;-67
2022/12/08 12:08:44;;;;;;;1999.90;999.90;;;5.40;99.90;;;;;;4992151;28;20437;-67
2022/12/08 12:14:16;;;;;;;1999.90;999.90;;;5.40;99.90;;;;;;4992329;28;20479;-67
2022/12/08 12:17:06;;;;;;;1999.90;999.90;;;5.40;99.90;;;;;;4992169;28;20409;-67
2022/12/08 12:19:36;;;;;;;1999.90;999.90;;;5.40;99.90;;;;;;4992768;28;20412;-68
2022/12/08 12:22:15;;;;;;;1999.90;999.90;;;5.40;99.90;;;;;;4992662;28;20393;-68
2022/12/08 12:24:44;;;;;;;1999.90;999.90;;;5.40;99.90;;;;;;4992860;28;20427;-67
2022/12/08 12:27:13;;;;;;;1999.90;999.90;;;5.40;99.90;;;;;;4992600;28;20409;-67
2022/12/08 12:29:44;;;;;;;1999.90;999.90;;;5.30;99.90;;;;;;4992671;28;20848;-67
2022/12/08 12:32:11;;;;;;;1999.90;999.90;;;5.30;99.90;;;;;;4992684;28;20452;-68